createdAt,value
2022-11-20T00:02:04.349Z,3523
2022-11-20T00:12:04.337Z,3523
2022-11-20T00:22:04.312Z,3523
2022-11-20T00:32:04.328Z,3523
2022-11-20T00:42:04.300Z,3523
2022-11-20T00:52:04.284Z,3523
2022-11-20T01:02:04.256Z,3523
2022-11-20T01:12:04.284Z,3523
2022-11-20T01:22:04.245Z,3523
2022-11-20T01:32:04.223Z,3523
2022-11-20T01:42:09.399Z,3523
2022-11-20T01:52:04.218Z,3523
2022-11-20T02:02:04.219Z,3521
2022-11-20T02:12:04.218Z,3521
2022-11-20T02:22:04.209Z,3521
2022-11-20T02:32:04.169Z,3521
2022-11-20T02:42:04.149Z,3521
2022-11-20T02:52:04.169Z,3521
2022-11-20T03:02:04.129Z,3521
2022-11-20T03:12:04.140Z,3518
2022-11-20T03:22:04.153Z,3518
2022-11-20T03:32:04.103Z,3521
2022-11-20T03:42:04.103Z,3518
2022-11-20T03:52:04.136Z,3518
2022-11-20T04:02:04.123Z,3516
2022-11-20T04:12:04.057Z,3518
2022-11-20T04:22:04.096Z,3518
2022-11-20T04:32:04.049Z,3518
2022-11-20T04:42:04.031Z,3518
2022-11-20T04:52:04.068Z,3516
2022-11-20T05:02:04.103Z,3518
2022-11-20T05:12:04.008Z,3513
2022-11-20T05:22:04.074Z,3518
2022-11-20T05:32:04.009Z,3518
2022-11-20T05:42:03.988Z,3516
2022-11-20T05:52:04.013Z,3518
2022-11-20T06:02:03.995Z,3518
2022-11-20T06:12:03.957Z,3518
2022-11-20T06:22:03.976Z,3516
2022-11-20T06:32:03.958Z,3516
2022-11-20T06:42:03.916Z,3516
2022-11-20T06:52:03.955Z,3516
2022-11-20T07:02:03.931Z,3518
2022-11-20T07:12:03.941Z,3518
2022-11-20T07:22:03.924Z,3516
2022-11-20T07:32:03.870Z,3518
2022-11-20T07:42:03.928Z,3516
2022-11-20T07:52:05.260Z,3516
2022-11-20T08:02:03.878Z,3518
2022-11-20T08:12:03.903Z,3518
2022-11-20T08:22:03.866Z,3518
2022-11-20T08:32:03.830Z,3521
2022-11-20T08:42:03.849Z,3521
2022-11-20T08:52:03.859Z,3521
2022-11-20T09:02:03.813Z,3523
2022-11-20T09:12:03.810Z,3523
2022-11-20T09:22:03.826Z,3526
2022-11-20T09:32:03.761Z,3528
2022-11-20T09:42:03.805Z,3531
2022-11-20T09:52:03.762Z,3533
2022-11-20T10:02:03.709Z,3538
2022-11-20T10:22:03.712Z,3541
2022-11-20T10:32:03.695Z,3543
2022-11-20T10:42:03.688Z,3543
2022-11-20T10:52:03.682Z,3543
2022-11-20T11:02:03.640Z,3543
2022-11-20T11:12:07.099Z,3541
2022-11-20T11:22:03.653Z,3543
2022-11-20T11:32:03.586Z,3543
2022-11-20T11:42:03.613Z,3543
2022-11-20T11:52:03.552Z,3546
2022-11-20T12:02:03.562Z,3546
2022-11-20T12:12:03.540Z,3548
2022-11-20T12:22:05.236Z,3548
2022-11-20T12:32:03.462Z,3548
2022-11-20T12:42:03.485Z,3548
2022-11-20T12:52:03.454Z,3551
2022-11-20T13:02:03.416Z,3548
2022-11-20T13:12:03.437Z,3551
2022-11-20T13:22:03.357Z,3553
2022-11-20T13:32:07.602Z,3548
2022-11-20T13:42:03.356Z,3551
2022-11-20T13:52:03.310Z,3553
2022-11-20T14:02:03.306Z,3553
2022-11-20T14:12:03.315Z,3551
2022-11-20T14:22:03.290Z,3551
2022-11-20T14:32:03.242Z,3551
2022-11-20T14:42:03.262Z,3548
2022-11-20T14:52:03.222Z,3548
2022-11-20T15:02:03.196Z,3548
2022-11-20T15:12:03.195Z,3548
2022-11-20T15:22:03.160Z,3546
2022-11-20T15:32:03.137Z,3543
2022-11-20T15:42:03.182Z,3543
2022-11-20T15:52:03.095Z,3543
2022-11-20T16:02:03.075Z,3541
2022-11-20T16:12:03.051Z,3538
2022-11-20T16:22:03.413Z,3538
2022-11-20T16:32:03.048Z,3538
2022-11-20T16:42:03.053Z,3538
2022-11-20T16:52:03.045Z,3538
2022-11-20T17:02:02.997Z,3536
2022-11-20T17:12:03.003Z,3536
2022-11-20T17:22:02.983Z,3536
2022-11-20T17:32:02.939Z,3536
2022-11-20T17:42:02.967Z,3536
2022-11-20T17:52:02.988Z,3536
2022-11-20T18:02:03.977Z,3533
2022-11-20T18:12:02.877Z,3533
2022-11-20T18:22:02.916Z,3536
2022-11-20T18:32:02.884Z,3533
2022-11-20T18:42:02.937Z,3533
2022-11-20T18:52:02.868Z,3533
2022-11-20T19:02:02.823Z,3531
2022-11-20T19:12:02.797Z,3533
2022-11-20T19:22:02.824Z,3533
2022-11-20T19:32:02.805Z,3533
2022-11-20T19:42:02.778Z,3533
2022-11-20T19:52:02.796Z,3533
2022-11-20T20:02:02.795Z,3531
2022-11-20T20:12:02.741Z,3528
2022-11-20T20:22:02.765Z,3528
2022-11-20T20:32:02.703Z,3531
2022-11-20T20:42:02.721Z,3528
2022-11-20T20:52:02.706Z,3531
2022-11-20T21:02:02.709Z,3528
2022-11-20T21:12:02.667Z,3528
2022-11-20T21:22:02.680Z,3531
2022-11-20T21:32:02.640Z,3531
2022-11-20T21:42:02.630Z,3528
2022-11-20T21:52:02.630Z,3528
2022-11-20T22:02:02.602Z,3531
2022-11-20T22:12:02.603Z,3531
2022-11-20T22:22:02.600Z,3528
2022-11-20T22:32:02.553Z,3528
2022-11-20T22:42:02.584Z,3528
2022-11-20T22:52:02.559Z,3528
2022-11-20T23:02:02.527Z,3528
2022-11-20T23:22:02.529Z,3528
2022-11-20T23:32:02.480Z,3526
2022-11-20T23:42:02.503Z,3528
2022-11-20T23:52:02.490Z,3526
